sensor_id;sensor_type;location;lat;lon;timestamp;temperature;humidity
5346;DHT22;2695;49.444;11.054;2022-09-14T00:01:27;19.00;99.90
5346;DHT22;2695;49.444;11.054;2022-09-14T00:03:57;19.00;99.90
5346;DHT22;2695;49.444;11.054;2022-09-14T00:06:28;18.90;99.90
5346;DHT22;2695;49.444;11.054;2022-09-14T00:08:58;18.90;99.90
5346;DHT22;2695;49.444;11.054;2022-09-14T00:11:29;18.90;99.90
5346;DHT22;2695;49.444;11.054;2022-09-14T00:13:59;18.90;99.90
5346;DHT22;2695;49.444;11.054;2022-09-14T00:16:29;18.90;99.90
5346;DHT22;2695;49.444;11.054;2022-09-14T00:18:59;18.90;99.90
5346;DHT22;2695;49.444;11.054;2022-09-14T00:21:33;18.90;99.90
5346;DHT22;2695;49.444;11.054;2022-09-14T00:24:01;18.90;99.90
5346;DHT22;2695;49.444;11.054;2022-09-14T00:26:29;18.90;99.90
5346;DHT22;2695;49.444;11.054;2022-09-14T00:28:58;18.90;99.90
5346;DHT22;2695;49.444;11.054;2022-09-14T00:31:31;18.90;99.90
5346;DHT22;2695;49.444;11.054;2022-09-14T00:34:00;18.80;99.90
5346;DHT22;2695;49.444;11.054;2022-09-14T00:36:29;18.90;99.90
5346;DHT22;2695;49.444;11.054;2022-09-14T00:38:58;18.80;99.90
5346;DHT22;2695;49.444;11.054;2022-09-14T00:41:29;18.80;99.90
5346;DHT22;2695;49.444;11.054;2022-09-14T00:44:00;18.70;99.90
5346;DHT22;2695;49.444;11.054;2022-09-14T00:46:30;18.80;99.90
5346;DHT22;2695;49.444;11.054;2022-09-14T00:49:00;18.60;99.90
5346;DHT22;2695;49.444;11.054;2022-09-14T00:51:31;18.70;99.90
5346;DHT22;2695;49.444;11.054;2022-09-14T00:54:01;18.60;99.90
5346;DHT22;2695;49.444;11.054;2022-09-14T00:56:30;18.70;99.90
5346;DHT22;2695;49.444;11.054;2022-09-14T00:59:00;18.70;99.90
5346;DHT22;2695;49.444;11.054;2022-09-14T01:01:31;18.60;99.90
5346;DHT22;2695;49.444;11.054;2022-09-14T01:03:59;18.70;99.90
5346;DHT22;2695;49.444;11.054;2022-09-14T01:06:34;18.70;99.90
5346;DHT22;2695;49.444;11.054;2022-09-14T01:09:13;18.70;99.90
5346;DHT22;2695;49.444;11.054;2022-09-14T01:11:57;18.70;99.90
5346;DHT22;2695;49.444;11.054;2022-09-14T01:14:31;18.60;99.90
5346;DHT22;2695;49.444;11.054;2022-09-14T01:17:06;18.60;99.90
5346;DHT22;2695;49.444;11.054;2022-09-14T01:20:13;18.50;99.90
5346;DHT22;2695;49.444;11.054;2022-09-14T01:22:47;18.50;99.90
5346;DHT22;2695;49.444;11.054;2022-09-14T01:25:33;18.50;99.90
5346;DHT22;2695;49.444;11.054;2022-09-14T01:28:06;18.50;99.90
5346;DHT22;2695;49.444;11.054;2022-09-14T01:30:37;18.50;99.90
5346;DHT22;2695;49.444;11.054;2022-09-14T01:33:12;18.40;99.90
5346;DHT22;2695;49.444;11.054;2022-09-14T01:35:45;18.50;99.90
5346;DHT22;2695;49.444;11.054;2022-09-14T01:38:18;18.50;99.90
5346;DHT22;2695;49.444;11.054;2022-09-14T01:40:48;18.50;99.90
5346;DHT22;2695;49.444;11.054;2022-09-14T01:43:21;18.50;99.90
5346;DHT22;2695;49.444;11.054;2022-09-14T01:45:53;18.50;99.90
5346;DHT22;2695;49.444;11.054;2022-09-14T01:48:26;18.50;99.90
5346;DHT22;2695;49.444;11.054;2022-09-14T01:50:59;18.40;99.90
5346;DHT22;2695;49.444;11.054;2022-09-14T01:53:31;18.40;99.90
5346;DHT22;2695;49.444;11.054;2022-09-14T01:56:03;18.30;99.90
5346;DHT22;2695;49.444;11.054;2022-09-14T01:58:38;18.30;99.90
5346;DHT22;2695;49.444;11.054;2022-09-14T02:01:08;18.20;99.90
5346;DHT22;2695;49.444;11.054;2022-09-14T02:03:45;18.10;99.90
5346;DHT22;2695;49.444;11.054;2022-09-14T02:06:19;18.00;99.90
5346;DHT22;2695;49.444;11.054;2022-09-14T02:08:50;17.90;99.90
5346;DHT22;2695;49.444;11.054;2022-09-14T02:11:18;17.90;99.90
5346;DHT22;2695;49.444;11.054;2022-09-14T02:13:47;17.90;99.90
5346;DHT22;2695;49.444;11.054;2022-09-14T02:16:16;17.90;99.90
5346;DHT22;2695;49.444;11.054;2022-09-14T02:18:44;17.90;99.90
5346;DHT22;2695;49.444;11.054;2022-09-14T02:21:16;17.90;99.90
5346;DHT22;2695;49.444;11.054;2022-09-14T02:23:45;17.90;99.90
5346;DHT22;2695;49.444;11.054;2022-09-14T02:26:14;17.90;99.90
5346;DHT22;2695;49.444;11.054;2022-09-14T02:28:43;18.00;99.90
5346;DHT22;2695;49.444;11.054;2022-09-14T02:31:20;18.00;99.90
5346;DHT22;2695;49.444;11.054;2022-09-14T02:33:59;18.10;99.90
5346;DHT22;2695;49.444;11.054;2022-09-14T02:36:36;18.00;99.90
5346;DHT22;2695;49.444;11.054;2022-09-14T02:39:16;18.00;99.90
5346;DHT22;2695;49.444;11.054;2022-09-14T02:41:49;18.00;99.90
5346;DHT22;2695;49.444;11.054;2022-09-14T02:44:34;18.00;99.90
5346;DHT22;2695;49.444;11.054;2022-09-14T02:47:13;18.00;99.90
5346;DHT22;2695;49.444;11.054;2022-09-14T02:49:45;17.90;99.90
5346;DHT22;2695;49.444;11.054;2022-09-14T02:52:17;17.90;99.90
5346;DHT22;2695;49.444;11.054;2022-09-14T02:54:52;17.80;99.90
5346;DHT22;2695;49.444;11.054;2022-09-14T02:57:22;17.70;99.90
5346;DHT22;2695;49.444;11.054;2022-09-14T02:59:52;17.70;99.90
5346;DHT22;2695;49.444;11.054;2022-09-14T03:02:21;17.70;99.90
5346;DHT22;2695;49.444;11.054;2022-09-14T03:04:49;17.70;99.90
5346;DHT22;2695;49.444;11.054;2022-09-14T03:07:17;17.70;99.90
5346;DHT22;2695;49.444;11.054;2022-09-14T03:09:45;17.70;99.90
5346;DHT22;2695;49.444;11.054;2022-09-14T03:12:13;17.70;99.90
5346;DHT22;2695;49.444;11.054;2022-09-14T03:14:42;17.70;99.90
5346;DHT22;2695;49.444;11.054;2022-09-14T03:17:10;17.80;99.90
5346;DHT22;2695;49.444;11.054;2022-09-14T03:19:39;17.90;99.90
5346;DHT22;2695;49.444;11.054;2022-09-14T03:22:07;17.90;99.90
5346;DHT22;2695;49.444;11.054;2022-09-14T03:24:35;18.00;99.90
5346;DHT22;2695;49.444;11.054;2022-09-14T03:27:03;18.10;99.90
5346;DHT22;2695;49.444;11.054;2022-09-14T03:29:32;18.10;99.90
5346;DHT22;2695;49.444;11.054;2022-09-14T03:32:01;18.10;99.90
5346;DHT22;2695;49.444;11.054;2022-09-14T03:34:30;18.10;99.90
5346;DHT22;2695;49.444;11.054;2022-09-14T03:37:00;18.10;99.90
5346;DHT22;2695;49.444;11.054;2022-09-14T03:39:28;18.10;99.90
5346;DHT22;2695;49.444;11.054;2022-09-14T03:41:56;18.10;99.90
5346;DHT22;2695;49.444;11.054;2022-09-14T03:44:24;18.10;99.90
5346;DHT22;2695;49.444;11.054;2022-09-14T03:46:51;18.10;99.90
5346;DHT22;2695;49.444;11.054;2022-09-14T03:49:20;18.10;99.90
5346;DHT22;2695;49.444;11.054;2022-09-14T03:51:48;18.10;99.90
5346;DHT22;2695;49.444;11.054;2022-09-14T03:54:17;18.10;99.90
5346;DHT22;2695;49.444;11.054;2022-09-14T03:56:45;18.00;99.90
5346;DHT22;2695;49.444;11.054;2022-09-14T03:59:13;17.80;99.90
5346;DHT22;2695;49.444;11.054;2022-09-14T04:01:41;17.70;99.90
5346;DHT22;2695;49.444;11.054;2022-09-14T04:04:09;17.60;99.90
5346;DHT22;2695;49.444;11.054;2022-09-14T04:06:38;17.50;99.90
5346;DHT22;2695;49.444;11.054;2022-09-14T04:09:05;17.40;99.90
5346;DHT22;2695;49.444;11.054;2022-09-14T04:11:35;17.30;99.90
5346;DHT22;2695;49.444;11.054;2022-09-14T04:14:04;17.20;99.90
5346;DHT22;2695;49.444;11.054;2022-09-14T04:16:33;17.20;99.90
5346;DHT22;2695;49.444;11.054;2022-09-14T04:19:01;17.00;99.90
5346;DHT22;2695;49.444;11.054;2022-09-14T04:21:29;17.00;99.90
5346;DHT22;2695;49.444;11.054;2022-09-14T04:23:59;16.90;99.90
5346;DHT22;2695;49.444;11.054;2022-09-14T04:26:45;16.90;99.90
5346;DHT22;2695;49.444;11.054;2022-09-14T04:29:13;17.00;99.90
5346;DHT22;2695;49.444;11.054;2022-09-14T04:31:41;16.80;99.90
5346;DHT22;2695;49.444;11.054;2022-09-14T04:34:11;17.00;99.90
5346;DHT22;2695;49.444;11.054;2022-09-14T04:36:40;17.00;99.90
5346;DHT22;2695;49.444;11.054;2022-09-14T04:39:10;16.90;99.90
5346;DHT22;2695;49.444;11.054;2022-09-14T04:41:39;16.90;99.90
5346;DHT22;2695;49.444;11.054;2022-09-14T04:44:09;16.90;99.90
5346;DHT22;2695;49.444;11.054;2022-09-14T04:46:37;16.90;99.90
5346;DHT22;2695;49.444;11.054;2022-09-14T04:49:12;16.90;99.90
5346;DHT22;2695;49.444;11.054;2022-09-14T04:51:41;16.80;99.90
5346;DHT22;2695;49.444;11.054;2022-09-14T04:54:12;16.80;99.90
5346;DHT22;2695;49.444;11.054;2022-09-14T04:56:41;16.80;99.90
5346;DHT22;2695;49.444;11.054;2022-09-14T04:59:11;16.70;99.90
5346;DHT22;2695;49.444;11.054;2022-09-14T05:01:43;16.60;99.90
5346;DHT22;2695;49.444;11.054;2022-09-14T05:04:13;16.60;99.90
5346;DHT22;2695;49.444;11.054;2022-09-14T05:06:42;16.60;99.90
5346;DHT22;2695;49.444;11.054;2022-09-14T05:09:12;16.60;99.90
5346;DHT22;2695;49.444;11.054;2022-09-14T05:11:41;16.60;99.90
5346;DHT22;2695;49.444;11.054;2022-09-14T05:14:12;16.70;99.90
5346;DHT22;2695;49.444;11.054;2022-09-14T05:16:41;16.70;99.90
5346;DHT22;2695;49.444;11.054;2022-09-14T05:19:12;16.70;99.90
5346;DHT22;2695;49.444;11.054;2022-09-14T05:21:40;16.80;99.90
5346;DHT22;2695;49.444;11.054;2022-09-14T05:24:11;16.80;99.90
5346;DHT22;2695;49.444;11.054;2022-09-14T05:26:53;16.80;99.90
5346;DHT22;2695;49.444;11.054;2022-09-14T05:29:28;16.70;99.90
5346;DHT22;2695;49.444;11.054;2022-09-14T05:31:57;16.70;99.90
5346;DHT22;2695;49.444;11.054;2022-09-14T05:34:26;16.70;99.90
5346;DHT22;2695;49.444;11.054;2022-09-14T05:36:54;16.70;99.90
5346;DHT22;2695;49.444;11.054;2022-09-14T05:39:22;16.70;99.90
5346;DHT22;2695;49.444;11.054;2022-09-14T05:41:50;16.80;99.90
5346;DHT22;2695;49.444;11.054;2022-09-14T05:44:18;16.80;99.90
5346;DHT22;2695;49.444;11.054;2022-09-14T05:46:48;16.80;99.90
5346;DHT22;2695;49.444;11.054;2022-09-14T05:49:16;16.90;99.90
5346;DHT22;2695;49.444;11.054;2022-09-14T05:51:45;16.90;99.90
5346;DHT22;2695;49.444;11.054;2022-09-14T05:54:13;17.00;99.90
5346;DHT22;2695;49.444;11.054;2022-09-14T05:56:41;16.90;99.90
5346;DHT22;2695;49.444;11.054;2022-09-14T05:59:09;16.90;99.90
5346;DHT22;2695;49.444;11.054;2022-09-14T06:01:38;16.90;99.90
5346;DHT22;2695;49.444;11.054;2022-09-14T06:04:09;16.90;99.90
5346;DHT22;2695;49.444;11.054;2022-09-14T06:06:38;16.90;99.90
5346;DHT22;2695;49.444;11.054;2022-09-14T06:09:06;16.90;99.90
5346;DHT22;2695;49.444;11.054;2022-09-14T06:11:36;16.90;99.90
5346;DHT22;2695;49.444;11.054;2022-09-14T06:14:05;17.00;99.90
5346;DHT22;2695;49.444;11.054;2022-09-14T06:16:33;16.90;99.90
5346;DHT22;2695;49.444;11.054;2022-09-14T06:19:02;16.80;99.90
5346;DHT22;2695;49.444;11.054;2022-09-14T06:21:41;16.70;99.90
5346;DHT22;2695;49.444;11.054;2022-09-14T06:24:12;16.70;99.90
5346;DHT22;2695;49.444;11.054;2022-09-14T06:26:40;16.60;99.90
5346;DHT22;2695;49.444;11.054;2022-09-14T06:29:08;16.60;99.90
5346;DHT22;2695;49.444;11.054;2022-09-14T06:31:36;16.60;99.90
5346;DHT22;2695;49.444;11.054;2022-09-14T06:34:05;16.60;99.90
5346;DHT22;2695;49.444;11.054;2022-09-14T06:36:35;16.60;99.90
5346;DHT22;2695;49.444;11.054;2022-09-14T06:39:03;16.60;99.90
5346;DHT22;2695;49.444;11.054;2022-09-14T06:41:32;16.50;99.90
5346;DHT22;2695;49.444;11.054;2022-09-14T06:44:00;16.40;99.90
5346;DHT22;2695;49.444;11.054;2022-09-14T06:46:30;16.30;99.90
5346;DHT22;2695;49.444;11.054;2022-09-14T06:49:02;16.30;99.90
5346;DHT22;2695;49.444;11.054;2022-09-14T06:51:32;16.30;99.90
5346;DHT22;2695;49.444;11.054;2022-09-14T06:54:02;16.40;99.90
5346;DHT22;2695;49.444;11.054;2022-09-14T06:56:32;16.30;99.90
5346;DHT22;2695;49.444;11.054;2022-09-14T06:59:00;16.30;99.90
5346;DHT22;2695;49.444;11.054;2022-09-14T07:01:29;16.40;99.90
5346;DHT22;2695;49.444;11.054;2022-09-14T07:03:58;16.30;99.90
5346;DHT22;2695;49.444;11.054;2022-09-14T07:06:29;16.30;99.90
5346;DHT22;2695;49.444;11.054;2022-09-14T07:09:01;16.30;99.90
5346;DHT22;2695;49.444;11.054;2022-09-14T07:11:32;16.30;99.90
5346;DHT22;2695;49.444;11.054;2022-09-14T07:14:00;16.30;99.90
5346;DHT22;2695;49.444;11.054;2022-09-14T07:16:30;16.30;99.90
5346;DHT22;2695;49.444;11.054;2022-09-14T07:18:59;16.40;99.90
5346;DHT22;2695;49.444;11.054;2022-09-14T07:21:29;16.50;99.90
5346;DHT22;2695;49.444;11.054;2022-09-14T07:23:57;16.50;99.90
5346;DHT22;2695;49.444;11.054;2022-09-14T07:26:27;16.60;99.90
5346;DHT22;2695;49.444;11.054;2022-09-14T07:28:58;16.60;99.90
5346;DHT22;2695;49.444;11.054;2022-09-14T07:31:28;16.60;99.90
5346;DHT22;2695;49.444;11.054;2022-09-14T07:33:58;16.70;99.90
5346;DHT22;2695;49.444;11.054;2022-09-14T07:36:26;16.80;99.90
5346;DHT22;2695;49.444;11.054;2022-09-14T07:39:01;16.80;99.90
5346;DHT22;2695;49.444;11.054;2022-09-14T07:41:30;16.90;99.90
5346;DHT22;2695;49.444;11.054;2022-09-14T07:44:02;16.80;99.90
5346;DHT22;2695;49.444;11.054;2022-09-14T07:46:32;16.80;99.90
5346;DHT22;2695;49.444;11.054;2022-09-14T07:49:04;16.80;99.90
5346;DHT22;2695;49.444;11.054;2022-09-14T07:51:33;16.90;99.90
5346;DHT22;2695;49.444;11.054;2022-09-14T07:54:02;17.10;99.90
5346;DHT22;2695;49.444;11.054;2022-09-14T07:56:31;17.20;99.90
5346;DHT22;2695;49.444;11.054;2022-09-14T07:59:02;17.20;99.90
5346;DHT22;2695;49.444;11.054;2022-09-14T08:01:51;17.20;99.90
5346;DHT22;2695;49.444;11.054;2022-09-14T08:04:19;17.20;99.90
5346;DHT22;2695;49.444;11.054;2022-09-14T08:06:47;17.20;99.90
5346;DHT22;2695;49.444;11.054;2022-09-14T08:09:15;17.30;99.90
5346;DHT22;2695;49.444;11.054;2022-09-14T08:11:43;17.30;99.90
5346;DHT22;2695;49.444;11.054;2022-09-14T08:14:12;17.30;99.90
5346;DHT22;2695;49.444;11.054;2022-09-14T08:16:41;17.40;99.90
5346;DHT22;2695;49.444;11.054;2022-09-14T08:19:11;17.30;99.90
5346;DHT22;2695;49.444;11.054;2022-09-14T08:21:40;17.40;99.90
5346;DHT22;2695;49.444;11.054;2022-09-14T08:24:14;17.40;99.90
5346;DHT22;2695;49.444;11.054;2022-09-14T08:26:43;17.50;99.90
5346;DHT22;2695;49.444;11.054;2022-09-14T08:29:13;17.60;99.90
5346;DHT22;2695;49.444;11.054;2022-09-14T08:31:41;17.70;99.90
5346;DHT22;2695;49.444;11.054;2022-09-14T08:34:12;17.80;99.90
5346;DHT22;2695;49.444;11.054;2022-09-14T08:36:42;17.80;99.90
5346;DHT22;2695;49.444;11.054;2022-09-14T08:39:11;17.90;99.90
5346;DHT22;2695;49.444;11.054;2022-09-14T08:41:47;18.00;99.90
5346;DHT22;2695;49.444;11.054;2022-09-14T08:44:22;18.00;99.90
5346;DHT22;2695;49.444;11.054;2022-09-14T08:46:54;18.00;99.90
5346;DHT22;2695;49.444;11.054;2022-09-14T08:49:35;18.00;99.90
5346;DHT22;2695;49.444;11.054;2022-09-14T08:52:04;18.10;99.90
5346;DHT22;2695;49.444;11.054;2022-09-14T08:54:33;18.20;99.90
5346;DHT22;2695;49.444;11.054;2022-09-14T08:57:08;18.20;99.90
5346;DHT22;2695;49.444;11.054;2022-09-14T08:59:50;18.30;99.90
5346;DHT22;2695;49.444;11.054;2022-09-14T09:02:30;18.30;99.90
5346;DHT22;2695;49.444;11.054;2022-09-14T09:05:06;18.40;99.90
5346;DHT22;2695;49.444;11.054;2022-09-14T09:07:45;18.50;99.90
5346;DHT22;2695;49.444;11.054;2022-09-14T09:10:16;18.50;99.90
5346;DHT22;2695;49.444;11.054;2022-09-14T09:12:49;18.50;99.90
5346;DHT22;2695;49.444;11.054;2022-09-14T09:15:21;18.50;99.90
5346;DHT22;2695;49.444;11.054;2022-09-14T09:17:54;18.60;99.90
5346;DHT22;2695;49.444;11.054;2022-09-14T09:20:26;18.60;99.90
5346;DHT22;2695;49.444;11.054;2022-09-14T09:23:02;18.70;99.90
5346;DHT22;2695;49.444;11.054;2022-09-14T09:25:44;18.80;99.90
5346;DHT22;2695;49.444;11.054;2022-09-14T09:28:14;18.90;99.90
5346;DHT22;2695;49.444;11.054;2022-09-14T09:30:45;19.00;99.90
5346;DHT22;2695;49.444;11.054;2022-09-14T09:33:16;19.10;99.90
5346;DHT22;2695;49.444;11.054;2022-09-14T09:35:44;19.20;99.90
5346;DHT22;2695;49.444;11.054;2022-09-14T09:38:14;19.20;99.90
5346;DHT22;2695;49.444;11.054;2022-09-14T09:40:46;19.30;99.90
5346;DHT22;2695;49.444;11.054;2022-09-14T09:43:16;19.30;99.90
5346;DHT22;2695;49.444;11.054;2022-09-14T09:46:07;19.30;99.90
5346;DHT22;2695;49.444;11.054;2022-09-14T09:48:39;19.30;99.90
5346;DHT22;2695;49.444;11.054;2022-09-14T09:51:11;19.30;99.90
5346;DHT22;2695;49.444;11.054;2022-09-14T09:53:46;19.30;99.90
5346;DHT22;2695;49.444;11.054;2022-09-14T09:56:17;19.30;99.90
5346;DHT22;2695;49.444;11.054;2022-09-14T09:58:46;19.20;99.90
5346;DHT22;2695;49.444;11.054;2022-09-14T10:01:21;19.20;99.90
5346;DHT22;2695;49.444;11.054;2022-09-14T10:04:04;19.30;99.90
5346;DHT22;2695;49.444;11.054;2022-09-14T10:06:40;19.30;99.90
5346;DHT22;2695;49.444;11.054;2022-09-14T10:09:14;19.30;99.90
5346;DHT22;2695;49.444;11.054;2022-09-14T10:11:44;19.40;99.90
5346;DHT22;2695;49.444;11.054;2022-09-14T10:14:22;19.50;99.90
5346;DHT22;2695;49.444;11.054;2022-09-14T10:16:52;19.70;99.90
5346;DHT22;2695;49.444;11.054;2022-09-14T10:19:22;20.00;99.90
5346;DHT22;2695;49.444;11.054;2022-09-14T10:22:03;20.20;99.90
5346;DHT22;2695;49.444;11.054;2022-09-14T10:24:33;20.60;99.90
5346;DHT22;2695;49.444;11.054;2022-09-14T10:30:16;21.40;99.90
5346;DHT22;2695;49.444;11.054;2022-09-14T10:32:51;21.80;99.90
5346;DHT22;2695;49.444;11.054;2022-09-14T10:35:24;22.00;99.90
5346;DHT22;2695;49.444;11.054;2022-09-14T10:38:04;22.30;99.90
5346;DHT22;2695;49.444;11.054;2022-09-14T10:40:37;22.80;99.90
5346;DHT22;2695;49.444;11.054;2022-09-14T10:43:14;23.30;99.90
5346;DHT22;2695;49.444;11.054;2022-09-14T10:45:48;23.60;99.90
5346;DHT22;2695;49.444;11.054;2022-09-14T10:48:29;23.70;99.90
5346;DHT22;2695;49.444;11.054;2022-09-14T10:51:16;23.70;99.90
5346;DHT22;2695;49.444;11.054;2022-09-14T10:53:50;23.70;99.90
5346;DHT22;2695;49.444;11.054;2022-09-14T10:56:23;23.60;99.90
5346;DHT22;2695;49.444;11.054;2022-09-14T10:59:11;23.80;99.90
5346;DHT22;2695;49.444;11.054;2022-09-14T11:02:12;24.00;99.90
5346;DHT22;2695;49.444;11.054;2022-09-14T11:05:02;24.00;99.90
5346;DHT22;2695;49.444;11.054;2022-09-14T11:07:37;23.80;99.90
5346;DHT22;2695;49.444;11.054;2022-09-14T11:10:18;23.60;99.90
5346;DHT22;2695;49.444;11.054;2022-09-14T11:13:07;23.30;99.90
5346;DHT22;2695;49.444;11.054;2022-09-14T11:15:46;23.10;99.90
5346;DHT22;2695;49.444;11.054;2022-09-14T11:29:15;22.80;99.90
5346;DHT22;2695;49.444;11.054;2022-09-14T11:31:50;23.00;99.90
5346;DHT22;2695;49.444;11.054;2022-09-14T11:34:42;23.30;99.90
5346;DHT22;2695;49.444;11.054;2022-09-14T11:37:13;23.60;99.90
5346;DHT22;2695;49.444;11.054;2022-09-14T11:39:45;23.90;99.90
5346;DHT22;2695;49.444;11.054;2022-09-14T11:42:19;24.00;99.90
5346;DHT22;2695;49.444;11.054;2022-09-14T11:44:56;24.20;99.90
5346;DHT22;2695;49.444;11.054;2022-09-14T11:47:27;24.30;99.90
5346;DHT22;2695;49.444;11.054;2022-09-14T11:50:04;24.20;99.90
5346;DHT22;2695;49.444;11.054;2022-09-14T11:52:33;24.10;99.90
5346;DHT22;2695;49.444;11.054;2022-09-14T11:55:08;24.20;99.90
5346;DHT22;2695;49.444;11.054;2022-09-14T11:57:37;24.40;99.90
5346;DHT22;2695;49.444;11.054;2022-09-14T12:03:15;24.40;99.90
5346;DHT22;2695;49.444;11.054;2022-09-14T12:05:44;24.30;99.90
5346;DHT22;2695;49.444;11.054;2022-09-14T12:08:38;24.40;99.90
5346;DHT22;2695;49.444;11.054;2022-09-14T12:11:29;24.50;99.90
5346;DHT22;2695;49.444;11.054;2022-09-14T12:14:33;24.50;99.90
5346;DHT22;2695;49.444;11.054;2022-09-14T12:17:15;24.60;99.90
5346;DHT22;2695;49.444;11.054;2022-09-14T12:23:23;24.70;99.90
5346;DHT22;2695;49.444;11.054;2022-09-14T12:26:02;24.60;99.90
5346;DHT22;2695;49.444;11.054;2022-09-14T12:28:40;24.70;99.90
5346;DHT22;2695;49.444;11.054;2022-09-14T12:31:36;24.90;99.90
5346;DHT22;2695;49.444;11.054;2022-09-14T12:34:15;25.00;99.90
5346;DHT22;2695;49.444;11.054;2022-09-14T12:37:01;25.20;99.90
5346;DHT22;2695;49.444;11.054;2022-09-14T12:39:37;25.20;99.90
5346;DHT22;2695;49.444;11.054;2022-09-14T12:42:26;25.40;99.90
5346;DHT22;2695;49.444;11.054;2022-09-14T12:44:55;25.70;99.90
5346;DHT22;2695;49.444;11.054;2022-09-14T12:47:57;26.00;99.90
5346;DHT22;2695;49.444;11.054;2022-09-14T12:50:29;26.30;99.90
5346;DHT22;2695;49.444;11.054;2022-09-14T12:55:55;26.20;99.90
5346;DHT22;2695;49.444;11.054;2022-09-14T12:58:52;26.10;99.90
5346;DHT22;2695;49.444;11.054;2022-09-14T13:01:34;26.10;99.90
5346;DHT22;2695;49.444;11.054;2022-09-14T13:04:12;26.00;99.90
5346;DHT22;2695;49.444;11.054;2022-09-14T13:06:44;26.00;99.90
5346;DHT22;2695;49.444;11.054;2022-09-14T13:09:18;26.00;99.90
5346;DHT22;2695;49.444;11.054;2022-09-14T13:11:58;26.10;99.90
5346;DHT22;2695;49.444;11.054;2022-09-14T13:14:29;25.90;99.90
5346;DHT22;2695;49.444;11.054;2022-09-14T13:16:59;25.70;99.90
5346;DHT22;2695;49.444;11.054;2022-09-14T13:19:30;25.50;99.90
5346;DHT22;2695;49.444;11.054;2022-09-14T13:22:01;25.40;99.90
5346;DHT22;2695;49.444;11.054;2022-09-14T13:24:44;25.30;99.90
5346;DHT22;2695;49.444;11.054;2022-09-14T13:27:19;25.20;99.90
5346;DHT22;2695;49.444;11.054;2022-09-14T13:29:57;25.30;99.90
5346;DHT22;2695;49.444;11.054;2022-09-14T13:32:26;25.30;99.90
5346;DHT22;2695;49.444;11.054;2022-09-14T13:34:54;25.40;99.90
5346;DHT22;2695;49.444;11.054;2022-09-14T13:37:24;25.30;99.90
5346;DHT22;2695;49.444;11.054;2022-09-14T13:39:54;25.30;99.90
5346;DHT22;2695;49.444;11.054;2022-09-14T13:42:24;25.40;99.90
5346;DHT22;2695;49.444;11.054;2022-09-14T13:44:53;25.40;99.90
5346;DHT22;2695;49.444;11.054;2022-09-14T13:47:23;25.20;99.90
5346;DHT22;2695;49.444;11.054;2022-09-14T13:49:57;25.10;99.90
5346;DHT22;2695;49.444;11.054;2022-09-14T13:52:34;25.00;99.90
5346;DHT22;2695;49.444;11.054;2022-09-14T13:55:25;24.90;99.90
5346;DHT22;2695;49.444;11.054;2022-09-14T13:58:05;24.70;99.90
5346;DHT22;2695;49.444;11.054;2022-09-14T14:00:46;24.40;99.90
5346;DHT22;2695;49.444;11.054;2022-09-14T14:03:24;24.20;99.90
5346;DHT22;2695;49.444;11.054;2022-09-14T14:05:53;23.90;99.90
5346;DHT22;2695;49.444;11.054;2022-09-14T14:08:29;23.80;99.90
5346;DHT22;2695;49.444;11.054;2022-09-14T14:10:59;23.60;99.90
5346;DHT22;2695;49.444;11.054;2022-09-14T14:13:29;23.50;99.90
5346;DHT22;2695;49.444;11.054;2022-09-14T14:16:16;23.30;99.90
5346;DHT22;2695;49.444;11.054;2022-09-14T14:18:54;23.10;99.90
5346;DHT22;2695;49.444;11.054;2022-09-14T14:21:29;23.10;99.90
5346;DHT22;2695;49.444;11.054;2022-09-14T14:24:24;22.80;99.90
5346;DHT22;2695;49.444;11.054;2022-09-14T14:26:55;22.60;99.90
5346;DHT22;2695;49.444;11.054;2022-09-14T14:29:24;22.40;99.90
5346;DHT22;2695;49.444;11.054;2022-09-14T14:31:53;22.30;99.90
5346;DHT22;2695;49.444;11.054;2022-09-14T14:34:23;22.30;99.90
5346;DHT22;2695;49.444;11.054;2022-09-14T14:36:51;22.30;99.90
5346;DHT22;2695;49.444;11.054;2022-09-14T14:39:24;22.20;99.90
5346;DHT22;2695;49.444;11.054;2022-09-14T14:41:52;22.20;99.90
5346;DHT22;2695;49.444;11.054;2022-09-14T14:44:23;22.20;99.90
5346;DHT22;2695;49.444;11.054;2022-09-14T14:46:54;22.10;99.90
5346;DHT22;2695;49.444;11.054;2022-09-14T14:49:22;21.90;99.90
5346;DHT22;2695;49.444;11.054;2022-09-14T14:51:51;21.60;99.90
5346;DHT22;2695;49.444;11.054;2022-09-14T14:54:21;21.30;99.90
5346;DHT22;2695;49.444;11.054;2022-09-14T14:56:50;21.10;99.90
5346;DHT22;2695;49.444;11.054;2022-09-14T14:59:25;20.80;99.90
5346;DHT22;2695;49.444;11.054;2022-09-14T15:01:55;20.50;99.90
5346;DHT22;2695;49.444;11.054;2022-09-14T15:04:23;20.50;99.90
5346;DHT22;2695;49.444;11.054;2022-09-14T15:06:52;20.40;99.90
5346;DHT22;2695;49.444;11.054;2022-09-14T15:09:23;20.30;99.90
5346;DHT22;2695;49.444;11.054;2022-09-14T15:11:52;20.20;99.90
5346;DHT22;2695;49.444;11.054;2022-09-14T15:14:22;20.20;99.90
5346;DHT22;2695;49.444;11.054;2022-09-14T15:16:53;20.10;99.90
5346;DHT22;2695;49.444;11.054;2022-09-14T15:19:26;20.20;99.90
5346;DHT22;2695;49.444;11.054;2022-09-14T15:21:54;20.20;99.90
5346;DHT22;2695;49.444;11.054;2022-09-14T15:24:28;20.10;99.90
5346;DHT22;2695;49.444;11.054;2022-09-14T15:26:57;20.10;99.90
5346;DHT22;2695;49.444;11.054;2022-09-14T15:29:25;20.00;99.90
5346;DHT22;2695;49.444;11.054;2022-09-14T15:31:53;20.00;99.90
5346;DHT22;2695;49.444;11.054;2022-09-14T15:34:22;19.90;99.90
5346;DHT22;2695;49.444;11.054;2022-09-14T15:36:52;19.90;99.90
5346;DHT22;2695;49.444;11.054;2022-09-14T15:39:22;19.90;99.90
5346;DHT22;2695;49.444;11.054;2022-09-14T15:41:53;19.90;99.90
5346;DHT22;2695;49.444;11.054;2022-09-14T15:44:21;19.90;99.90
5346;DHT22;2695;49.444;11.054;2022-09-14T15:46:49;19.80;99.90
5346;DHT22;2695;49.444;11.054;2022-09-14T15:49:20;19.70;99.90
5346;DHT22;2695;49.444;11.054;2022-09-14T15:51:50;19.70;99.90
5346;DHT22;2695;49.444;11.054;2022-09-14T15:54:19;19.60;99.90
5346;DHT22;2695;49.444;11.054;2022-09-14T15:56:50;19.70;99.90
5346;DHT22;2695;49.444;11.054;2022-09-14T15:59:20;19.50;99.90
5346;DHT22;2695;49.444;11.054;2022-09-14T16:01:48;19.50;99.90
5346;DHT22;2695;49.444;11.054;2022-09-14T16:04:17;19.50;99.90
5346;DHT22;2695;49.444;11.054;2022-09-14T16:06:46;19.50;99.90
5346;DHT22;2695;49.444;11.054;2022-09-14T16:09:15;19.50;99.90
5346;DHT22;2695;49.444;11.054;2022-09-14T16:11:43;19.50;99.90
5346;DHT22;2695;49.444;11.054;2022-09-14T16:14:12;19.50;99.90
5346;DHT22;2695;49.444;11.054;2022-09-14T16:16:41;19.50;99.90
5346;DHT22;2695;49.444;11.054;2022-09-14T16:19:11;19.50;99.90
5346;DHT22;2695;49.444;11.054;2022-09-14T16:21:40;19.60;99.90
5346;DHT22;2695;49.444;11.054;2022-09-14T16:24:11;19.50;99.90
5346;DHT22;2695;49.444;11.054;2022-09-14T16:26:40;19.60;99.90
5346;DHT22;2695;49.444;11.054;2022-09-14T16:29:10;19.50;99.90
5346;DHT22;2695;49.444;11.054;2022-09-14T16:31:41;19.50;99.90
5346;DHT22;2695;49.444;11.054;2022-09-14T16:34:17;19.40;99.90
5346;DHT22;2695;49.444;11.054;2022-09-14T16:36:46;19.40;99.90
5346;DHT22;2695;49.444;11.054;2022-09-14T16:39:16;19.40;99.90
5346;DHT22;2695;49.444;11.054;2022-09-14T16:41:44;19.30;99.90